This is the latest recevied weather packets stored in our database for station/object W0AKO. If no packets are shown the sender has not sent any weather packets the latest 1 day(s).
| Time | Temp. | Humidity | Pressure | Rain* | Wind** | Luminosity | Snow |
|---|---|---|---|---|---|---|---|
| 1778079000 | 18.89° C | 10% | 1018.1 hPa | 0 mm | - | 190 W/m² | - |
| 1778078091 | 17.78° C | 10% | 1017.8 hPa | 0 mm | - | 165 W/m² | - |
| 1778077487 | 17.22° C | 10% | 1017.9 hPa | 0 mm | - | 140 W/m² | - |
| 1778076581 | 16.11° C | 10% | 1017.9 hPa | 0 mm | - | 111 W/m² | - |
| 1778075974 | 15° C | 10% | 1017.5 hPa | 0 mm | - | 100 W/m² | - |
| 1778074761 | 15° C | 10% | 1017 hPa | 0 mm | - | 74 W/m² | - |
| 1778072337 | 13.89° C | 10% | 1016.7 hPa | 0 mm | - | 13 W/m² | - |
| 1778071733 | 14.44° C | 10% | 1016.3 hPa | 0 mm | - | 7 W/m² | - |
| 1778069614 | 13.33° C | 10% | 1016 hPa | 0 mm | - | 0 W/m² | - |
| 1778068102 | 15° C | 10% | 1015.8 hPa | 0 mm | - | 0 W/m² | - |
| 1778067800 | 15° C | 10% | 1015.7 hPa | 0 mm | - | 0 W/m² | - |
| 1778067498 | 14.44° C | 10% | 1015.4 hPa | 0 mm | - | 0 W/m² | - |
| 1778067195 | 13.89° C | 10% | 1015.7 hPa | 0 mm | - | 0 W/m² | - |
| 1778066589 | 13.89° C | 10% | 1015.5 hPa | 0 mm | - | 0 W/m² | - |
| 1778066286 | 15° C | 10% | 1015.2 hPa | 0 mm | - | 0 W/m² | - |
| 1778065075 | 15° C | 10% | 1015.1 hPa | 0 mm | - | 0 W/m² | - |
| 1778064772 | 15° C | 10% | 1015.1 hPa | 0 mm | - | 0 W/m² | - |
| 1778063864 | 15.56° C | 10% | 1015 hPa | 0 mm | - | 0 W/m² | - |
| 1778063259 | 15.56° C | 10% | 1015 hPa | 0 mm | - | 0 W/m² | - |
| 1778062957 | 15.56° C | 10% | 1015.1 hPa | 0 mm | - | 0 W/m² | - |
| 1778062654 | 15° C | 10% | 1014.7 hPa | 0 mm | - | 0 W/m² | - |
| 1778062350 | 15° C | 10% | 1014.8 hPa | 0 mm | - | 0 W/m² | - |
| 1778061746 | 15° C | 10% | 1014.7 hPa | 0 mm | - | 0 W/m² | - |
| 1778060536 | 16.11° C | 10% | 1014.7 hPa | 0 mm | - | 0 W/m² | - |
| 1778059931 | 16.67° C | 10% | 1014.3 hPa | 0 mm | - | 0 W/m² | - |
* Rain latest hour (hover to see other rain measurements)
** Current wind speed in m/s (hover to see current wind gust speed)